الصفحة الرئيسية
METAR-TAF:

METAR-TAF

مطار :

Casa Grande, أريزونا, الولايات المتحدة

دائرة عرض: 32-57N, خط طول: 111-46W, ارتفاع: 446 متر

مراقبة الطقس الحالي

تاريخ ووقت الإصدار 11 دقيقة قبل الساعة 09:56UTC
رياح هادئة
درجة الحرارة 9°درجة مئوية
الرطوبة 57%
ضغط 1017 hPa
الرؤية: 16.1 كم
سماء صافية

METAR: KCGZ 220956Z AUTO 00000KT 10SM CLR 09/01 A3004 RMK AO2 SLP170 T00890006 PNO $

زمن: 03:07 (10:07 UTC)


TAF: مفقودة

أرصاد الطقس والتوقعات من أكثر من 4000 مطار (تقارير الطقس للمطار METAR والتنبؤ بالطقس بالمطارTAF).

المحطات المتاحة هي النقط الصفراء والحمراء على الخريطة.

حرك المؤشر فوق النقطة لمعرفة اسم المحطة.

ثم انقر لمعرفة أرصاد وتوقعات الطقس.

لتغيير الخارطة: اضغط على الأزرار الخضراء مع رمز الصليب الأسود للتكبير. على الزر الأخضر مع شرطة للتصغير، أو على الأسهم الخضراء للخرائط المجاورة.


METAR-TAF: